createdAt,value
2022-12-20T00:00:05.145Z,3.10
2022-12-20T00:02:38.830Z,3.20
2022-12-20T00:05:05.821Z,3.20
2022-12-20T00:07:39.823Z,3.20
2022-12-20T00:10:07.102Z,3.30
2022-12-20T00:12:39.805Z,3.30
2022-12-20T00:15:06.832Z,3.20
2022-12-20T00:17:33.466Z,3.20
2022-12-20T00:20:06.748Z,3.30
2022-12-20T00:22:39.751Z,3.30
2022-12-20T00:25:13.724Z,3.30
2022-12-20T00:27:40.456Z,3.30
2022-12-20T00:30:13.816Z,3.30
2022-12-20T00:32:40.453Z,3.30
2022-12-20T00:35:07.491Z,3.40
2022-12-20T00:37:47.725Z,3.40
2022-12-20T00:40:27.733Z,3.40
2022-12-20T00:43:00.718Z,3.50
2022-12-20T00:45:40.749Z,3.50
2022-12-20T00:48:07.376Z,3.50
2022-12-20T00:50:40.795Z,3.40
2022-12-20T00:53:09.878Z,3.50
2022-12-20T00:55:51.781Z,3.50
2022-12-20T00:58:18.436Z,3.50
2022-12-20T01:00:56.066Z,3.50
2022-12-20T01:03:23.635Z,3.50
2022-12-20T01:05:59.813Z,3.50
2022-12-20T01:08:28.812Z,3.50
2022-12-20T01:11:26.766Z,3.60
2022-12-20T01:13:56.067Z,3.60
2022-12-20T01:16:53.836Z,3.60
2022-12-20T01:19:40.741Z,3.70
2022-12-20T01:22:13.812Z,3.70
2022-12-20T01:24:40.406Z,3.60
2022-12-20T01:27:13.816Z,3.60
2022-12-20T01:29:40.423Z,3.70
2022-12-20T01:32:07.164Z,3.70
2022-12-20T01:34:40.816Z,3.70
2022-12-20T01:37:07.442Z,3.70
2022-12-20T01:39:34.051Z,3.70
2022-12-20T01:42:06.791Z,3.70
2022-12-20T01:44:33.474Z,3.70
2022-12-20T01:47:06.789Z,3.70
2022-12-20T01:49:43.598Z,3.80
2022-12-20T01:52:25.752Z,3.70
2022-12-20T01:55:07.092Z,3.70
2022-12-20T01:58:01.742Z,3.70
2022-12-20T02:00:35.916Z,3.70
2022-12-20T02:03:12.929Z,3.70
2022-12-20T02:05:49.741Z,3.70
2022-12-20T02:08:25.792Z,3.70
2022-12-20T02:11:08.890Z,3.70
2022-12-20T02:14:01.722Z,3.70
2022-12-20T02:16:40.835Z,3.70
2022-12-20T02:19:42.434Z,3.70
2022-12-20T02:23:01.714Z,3.70
2022-12-20T02:25:42.861Z,3.70
2022-12-20T02:28:26.724Z,3.70
2022-12-20T02:30:55.053Z,3.70
2022-12-20T02:33:31.803Z,3.70
2022-12-20T02:35:58.424Z,3.70
2022-12-20T02:38:40.799Z,3.70
2022-12-20T02:41:19.790Z,3.70
2022-12-20T02:44:16.721Z,3.60
2022-12-20T02:46:44.469Z,3.60
2022-12-20T02:49:22.723Z,3.70
2022-12-20T02:51:52.663Z,3.70
2022-12-20T02:54:26.798Z,3.70
2022-12-20T02:57:01.880Z,3.70
2022-12-20T02:59:49.706Z,3.70
2022-12-20T03:02:17.075Z,3.70
2022-12-20T03:04:50.827Z,3.70
2022-12-20T03:07:23.798Z,3.70
2022-12-20T03:09:50.406Z,3.70
2022-12-20T03:12:17.322Z,3.70
2022-12-20T03:14:50.805Z,3.70
2022-12-20T03:17:23.731Z,3.70
2022-12-20T03:20:03.768Z,3.70
2022-12-20T03:22:37.755Z,3.70
2022-12-20T03:25:11.781Z,3.80
2022-12-20T03:27:38.366Z,3.80
2022-12-20T03:30:06.268Z,3.80
2022-12-20T03:32:39.807Z,3.80
2022-12-20T03:35:07.260Z,3.80
2022-12-20T03:37:33.878Z,3.80
2022-12-20T03:40:06.794Z,3.80
2022-12-20T03:42:33.816Z,3.80
2022-12-20T03:45:06.783Z,3.80
2022-12-20T03:47:33.577Z,3.80
2022-12-20T03:50:00.199Z,3.80
2022-12-20T03:52:33.707Z,3.80
2022-12-20T03:55:00.776Z,3.80
2022-12-20T03:57:33.776Z,3.90
2022-12-20T04:00:06.769Z,3.90
2022-12-20T04:02:33.501Z,3.90
2022-12-20T04:05:06.773Z,3.90
2022-12-20T04:07:39.870Z,3.90
2022-12-20T04:10:07.753Z,3.90
2022-12-20T04:12:40.749Z,3.90
2022-12-20T04:15:08.126Z,3.90
2022-12-20T04:17:41.774Z,3.90
2022-12-20T04:20:19.584Z,3.90
2022-12-20T04:22:54.722Z,3.90
2022-12-20T04:25:22.155Z,3.90
2022-12-20T04:27:55.725Z,3.90
2022-12-20T04:30:22.722Z,3.90
2022-12-20T04:32:55.797Z,3.90
2022-12-20T04:35:22.503Z,4.00
2022-12-20T04:37:49.111Z,3.90
2022-12-20T04:40:22.737Z,4.00
2022-12-20T04:42:55.720Z,4.00
2022-12-20T04:45:22.311Z,4.00
2022-12-20T04:47:55.861Z,4.00
2022-12-20T04:50:22.588Z,4.00
2022-12-20T04:53:14.818Z,3.90
2022-12-20T04:55:41.501Z,3.90
2022-12-20T04:58:08.650Z,3.90
2022-12-20T05:00:41.713Z,3.80
2022-12-20T05:03:14.910Z,3.90
2022-12-20T05:05:47.780Z,3.80
2022-12-20T05:08:15.015Z,3.80
2022-12-20T05:10:48.715Z,3.80
2022-12-20T05:13:15.630Z,3.70
2022-12-20T05:15:49.755Z,3.80
2022-12-20T05:18:16.424Z,3.70
2022-12-20T05:21:16.729Z,3.70
2022-12-20T05:24:02.217Z,3.60
2022-12-20T05:26:39.779Z,3.70
2022-12-20T05:29:06.827Z,3.60
2022-12-20T05:31:33.705Z,3.50
2022-12-20T05:34:06.719Z,3.50
2022-12-20T05:36:39.710Z,3.50
2022-12-20T05:39:06.306Z,3.40
2022-12-20T05:41:39.706Z,3.40
2022-12-20T05:44:07.258Z,3.50
2022-12-20T05:46:43.157Z,3.50
2022-12-20T05:49:09.877Z,3.50
2022-12-20T05:51:43.718Z,3.40
2022-12-20T05:54:11.280Z,3.50
2022-12-20T05:56:44.725Z,3.50
2022-12-20T05:59:11.386Z,3.50
2022-12-20T06:01:44.807Z,3.50
2022-12-20T06:04:11.504Z,3.60
2022-12-20T06:06:38.163Z,3.50
2022-12-20T06:09:11.755Z,3.50
2022-12-20T06:11:38.426Z,3.50
2022-12-20T06:14:11.788Z,3.60
2022-12-20T06:16:38.487Z,3.60
2022-12-20T06:19:21.669Z,3.60
2022-12-20T06:21:55.170Z,3.60
2022-12-20T06:24:31.726Z,3.80
2022-12-20T06:26:58.464Z,3.80
2022-12-20T06:29:31.701Z,3.90
2022-12-20T06:31:58.536Z,3.90
2022-12-20T06:34:31.775Z,4.00
2022-12-20T06:37:04.768Z,4.00
2022-12-20T06:39:37.715Z,4.10
2022-12-20T06:42:04.709Z,4.10
2022-12-20T06:44:37.779Z,4.00
2022-12-20T06:47:04.415Z,4.10
2022-12-20T06:49:37.785Z,4.10
2022-12-20T06:52:04.850Z,4.10
2022-12-20T06:54:31.498Z,4.10
2022-12-20T06:57:04.738Z,4.20
2022-12-20T06:59:37.749Z,4.20
2022-12-20T07:02:05.388Z,4.20
2022-12-20T07:04:39.797Z,4.20
2022-12-20T07:07:06.624Z,4.30
2022-12-20T07:09:33.373Z,4.30
2022-12-20T07:12:06.722Z,4.30
2022-12-20T07:14:33.368Z,4.30
2022-12-20T07:17:13.727Z,4.40
2022-12-20T07:19:53.780Z,4.40
2022-12-20T07:22:20.414Z,4.40
2022-12-20T07:24:54.726Z,4.50
2022-12-20T07:27:21.353Z,4.50
2022-12-20T07:29:54.727Z,4.50
2022-12-20T07:32:21.405Z,4.50
2022-12-20T07:34:54.777Z,4.50
2022-12-20T07:37:21.438Z,4.60
2022-12-20T07:39:54.766Z,4.70
2022-12-20T07:42:35.572Z,4.70
2022-12-20T07:45:05.001Z,4.70
2022-12-20T07:47:37.786Z,4.70
2022-12-20T07:50:11.786Z,4.70
2022-12-20T07:52:41.124Z,4.70
2022-12-20T07:55:15.799Z,4.80
2022-12-20T07:57:51.232Z,4.90
2022-12-20T08:00:25.759Z,4.80
2022-12-20T08:03:11.806Z,4.90
2022-12-20T08:05:50.723Z,4.90
2022-12-20T08:08:18.381Z,4.90
2022-12-20T08:10:52.711Z,4.90
2022-12-20T08:13:19.387Z,4.90
2022-12-20T08:15:52.797Z,4.90
2022-12-20T08:18:25.770Z,4.90
2022-12-20T08:20:59.119Z,4.90
2022-12-20T08:23:32.730Z,4.90
2022-12-20T08:26:02.412Z,5.00
2022-12-20T08:28:35.778Z,5.00
2022-12-20T08:31:04.382Z,5.00
2022-12-20T08:33:32.581Z,5.00
2022-12-20T08:36:12.724Z,5.00
2022-12-20T08:38:46.806Z,5.00
2022-12-20T08:41:15.090Z,5.10
2022-12-20T08:43:48.761Z,5.10
2022-12-20T08:46:21.865Z,5.10
2022-12-20T08:48:48.502Z,5.20
2022-12-20T08:51:21.763Z,5.20
2022-12-20T08:53:48.391Z,5.20
2022-12-20T08:56:23.712Z,5.20
2022-12-20T08:58:56.775Z,5.20
2022-12-20T09:01:23.635Z,5.20
2022-12-20T09:03:56.901Z,5.30
2022-12-20T09:06:24.022Z,5.30
2022-12-20T09:08:50.706Z,5.30
2022-12-20T09:11:27.749Z,5.40
2022-12-20T09:14:02.773Z,5.40
2022-12-20T09:16:32.799Z,5.40
2022-12-20T09:19:08.772Z,5.40
2022-12-20T09:21:42.235Z,5.40
2022-12-20T09:24:16.750Z,5.50
2022-12-20T09:26:43.414Z,5.50
2022-12-20T09:29:25.867Z,5.50
2022-12-20T09:32:01.701Z,5.60
2022-12-20T09:34:28.367Z,5.70
2022-12-20T09:37:01.777Z,5.80
2022-12-20T09:39:34.772Z,5.80
2022-12-20T09:42:15.717Z,5.90
2022-12-20T09:44:49.779Z,6.00
2022-12-20T09:47:21.164Z,6.00
2022-12-20T09:49:57.712Z,6.10
2022-12-20T09:52:45.735Z,6.20
2022-12-20T09:55:46.940Z,6.20
2022-12-20T09:58:36.686Z,6.30
2022-12-20T10:01:25.152Z,6.40
2022-12-20T10:04:00.835Z,6.40
2022-12-20T10:06:51.405Z,6.40
2022-12-20T10:09:36.788Z,6.50
2022-12-20T10:12:29.409Z,6.50
2022-12-20T10:15:24.697Z,6.60
2022-12-20T10:18:12.691Z,6.60
2022-12-20T10:21:17.750Z,6.70
2022-12-20T10:24:15.770Z,6.70
2022-12-20T10:26:49.721Z,6.80
2022-12-20T10:29:16.788Z,6.80
2022-12-20T10:31:49.784Z,6.80
2022-12-20T10:34:16.492Z,6.90
2022-12-20T10:36:49.730Z,6.90
2022-12-20T10:39:16.383Z,6.90
2022-12-20T10:41:49.713Z,7.00
2022-12-20T10:44:19.176Z,6.90
2022-12-20T10:46:55.951Z,6.90
2022-12-20T10:49:32.089Z,7.00
2022-12-20T10:52:08.884Z,7.00
2022-12-20T10:54:49.754Z,7.00
2022-12-20T10:57:16.351Z,7.10
2022-12-20T10:59:48.047Z,7.20
2022-12-20T11:02:47.904Z,7.20
2022-12-20T11:05:20.781Z,7.30
2022-12-20T11:08:33.624Z,7.50
2022-12-20T11:10:48.705Z,7.70
2022-12-20T11:13:31.724Z,8.00
2022-12-20T11:16:01.609Z,8.20
2022-12-20T11:18:46.711Z,8.30
2022-12-20T11:21:28.308Z,8.30
2022-12-20T11:24:39.846Z,8.30
2022-12-20T11:27:30.766Z,8.20
2022-12-20T11:30:19.409Z,8.10
2022-12-20T11:33:10.768Z,8.10
2022-12-20T11:35:52.464Z,7.90
2022-12-20T11:38:43.925Z,7.90
2022-12-20T11:41:25.510Z,7.90
2022-12-20T11:44:53.264Z,7.90
2022-12-20T11:47:49.756Z,7.90
2022-12-20T11:50:59.805Z,7.90
2022-12-20T11:53:43.917Z,7.90
2022-12-20T11:56:18.072Z,7.90
2022-12-20T11:59:22.713Z,7.90
2022-12-20T12:01:57.787Z,7.90
2022-12-20T12:04:37.696Z,7.90
2022-12-20T12:07:21.989Z,7.80
2022-12-20T12:10:06.803Z,7.80
2022-12-20T12:12:35.728Z,7.80
2022-12-20T12:15:05.388Z,7.70
2022-12-20T12:17:51.787Z,7.60
2022-12-20T12:20:47.720Z,7.60
2022-12-20T12:23:26.631Z,7.60
2022-12-20T12:26:00.760Z,7.50
2022-12-20T12:28:28.268Z,7.50
2022-12-20T12:30:59.528Z,7.40
2022-12-20T12:33:39.257Z,7.40
2022-12-20T12:36:24.248Z,7.30
2022-12-20T12:39:31.799Z,7.20
2022-12-20T12:42:31.108Z,7.20
2022-12-20T12:45:08.697Z,7.10
2022-12-20T12:47:41.694Z,7.10
2022-12-20T12:50:22.771Z,7.10
2022-12-20T12:52:59.714Z,7.10
2022-12-20T12:55:39.290Z,7.00
2022-12-20T12:58:41.486Z,7.10
2022-12-20T13:01:18.845Z,7.00
2022-12-20T13:03:54.886Z,7.00
2022-12-20T13:07:01.697Z,7.00
2022-12-20T13:09:34.703Z,7.00
2022-12-20T13:12:36.494Z,6.90
2022-12-20T13:15:27.714Z,6.90
2022-12-20T13:17:59.430Z,6.90
2022-12-20T13:20:41.785Z,6.90
2022-12-20T13:23:14.764Z,6.90
2022-12-20T13:25:55.773Z,6.90
2022-12-20T13:28:25.364Z,6.80
2022-12-20T13:31:07.820Z,6.80
2022-12-20T13:33:51.724Z,6.80
2022-12-20T13:36:44.771Z,6.70
2022-12-20T13:39:21.255Z,6.60
2022-12-20T13:42:37.768Z,6.50
2022-12-20T13:45:20.760Z,6.50
2022-12-20T13:48:05.169Z,6.40
2022-12-20T13:50:48.795Z,6.40
2022-12-20T13:53:24.209Z,6.40
2022-12-20T13:55:57.722Z,6.40
2022-12-20T13:58:37.757Z,6.40
2022-12-20T14:01:11.976Z,6.30
2022-12-20T14:03:52.944Z,6.30
2022-12-20T14:06:26.925Z,6.20
2022-12-20T14:09:06.859Z,6.20
2022-12-20T14:11:39.762Z,6.20
2022-12-20T14:14:13.964Z,6.20
2022-12-20T14:16:46.840Z,6.10
2022-12-20T14:19:14.730Z,6.10
2022-12-20T14:21:58.880Z,6.10
2022-12-20T14:24:31.809Z,6.00
2022-12-20T14:27:06.764Z,6.00
2022-12-20T14:29:33.545Z,5.90
2022-12-20T14:32:06.716Z,5.90
2022-12-20T14:34:41.341Z,5.90
2022-12-20T14:37:36.778Z,5.90
2022-12-20T14:40:09.489Z,5.90
2022-12-20T14:42:44.789Z,5.90
2022-12-20T14:45:20.812Z,6.00
2022-12-20T14:48:12.734Z,5.90
2022-12-20T14:50:49.707Z,5.90
2022-12-20T14:53:26.760Z,5.80
2022-12-20T14:55:53.457Z,5.80
2022-12-20T14:58:36.779Z,5.80
2022-12-20T15:01:21.058Z,5.80
2022-12-20T15:03:58.965Z,5.80
2022-12-20T15:06:42.225Z,5.70
2022-12-20T15:09:22.719Z,5.60
2022-12-20T15:11:57.770Z,5.60
2022-12-20T15:14:33.714Z,5.60
2022-12-20T15:17:06.690Z,5.50
2022-12-20T15:19:42.569Z,5.50
2022-12-20T15:22:24.805Z,5.50
2022-12-20T15:24:57.716Z,5.40
2022-12-20T15:27:30.718Z,5.40
2022-12-20T15:29:59.931Z,5.40
2022-12-20T15:32:35.707Z,5.30
2022-12-20T15:35:03.546Z,5.30
2022-12-20T15:37:30.192Z,5.30
2022-12-20T15:40:03.978Z,5.30
2022-12-20T15:42:30.751Z,5.30
2022-12-20T15:45:04.777Z,5.30
2022-12-20T15:47:31.388Z,5.20
2022-12-20T15:50:04.687Z,5.30
2022-12-20T15:52:31.803Z,5.20
2022-12-20T15:55:04.729Z,5.20
2022-12-20T15:57:31.358Z,5.30
2022-12-20T16:00:04.861Z,5.20
2022-12-20T16:02:39.894Z,5.20
2022-12-20T16:05:09.733Z,5.20
2022-12-20T16:07:42.695Z,5.20
2022-12-20T16:10:12.975Z,5.20
2022-12-20T16:12:39.713Z,5.20
2022-12-20T16:15:14.787Z,5.20
2022-12-20T16:17:41.390Z,5.20
2022-12-20T16:20:15.734Z,5.20
2022-12-20T16:22:55.772Z,5.20
2022-12-20T16:25:32.559Z,5.20
2022-12-20T16:28:05.769Z,5.20
2022-12-20T16:30:38.702Z,5.20
2022-12-20T16:33:06.535Z,5.20
2022-12-20T16:35:43.767Z,5.20
2022-12-20T16:38:10.400Z,5.20
2022-12-20T16:40:43.781Z,5.20
2022-12-20T16:43:15.457Z,5.20
2022-12-20T16:45:48.748Z,5.20
2022-12-20T16:48:15.344Z,5.30
2022-12-20T16:50:49.793Z,5.30
2022-12-20T16:53:16.501Z,5.30
2022-12-20T16:55:43.114Z,5.30
2022-12-20T16:58:16.791Z,5.20
2022-12-20T17:00:49.834Z,5.20
2022-12-20T17:03:22.894Z,5.10
2022-12-20T17:05:49.777Z,5.10
2022-12-20T17:11:07.719Z,5.20
2022-12-20T17:13:40.781Z,5.10
2022-12-20T17:16:10.105Z,5.10
2022-12-20T17:18:36.734Z,5.00
2022-12-20T17:21:28.827Z,5.00
2022-12-20T17:24:06.403Z,5.00
2022-12-20T17:26:40.764Z,5.00
2022-12-20T17:29:07.657Z,5.00
2022-12-20T17:31:40.695Z,5.00
2022-12-20T17:34:25.787Z,5.00
2022-12-20T17:37:01.806Z,5.10
2022-12-20T17:39:34.686Z,5.00
2022-12-20T17:42:07.754Z,5.00
2022-12-20T17:44:40.735Z,5.00
2022-12-20T17:47:07.513Z,5.00
2022-12-20T17:49:34.278Z,5.10
2022-12-20T17:52:07.750Z,5.10
2022-12-20T17:54:40.079Z,5.10
2022-12-20T17:57:22.750Z,5.10
2022-12-20T17:59:55.798Z,5.20
2022-12-20T18:02:25.339Z,5.20
2022-12-20T18:04:58.751Z,5.30
2022-12-20T18:07:31.819Z,5.30
2022-12-20T18:10:01.233Z,5.30
2022-12-20T18:12:37.589Z,5.30
2022-12-20T18:15:07.314Z,5.30
2022-12-20T18:17:33.981Z,5.30
2022-12-20T18:20:06.744Z,5.20
2022-12-20T18:22:47.752Z,5.30
2022-12-20T18:25:18.073Z,5.30
2022-12-20T18:27:51.751Z,5.20
2022-12-20T18:30:18.730Z,5.20
2022-12-20T18:32:51.682Z,5.20
2022-12-20T18:35:24.768Z,5.20
2022-12-20T18:37:57.733Z,5.20
2022-12-20T18:40:26.323Z,5.20
2022-12-20T18:43:04.242Z,5.20
2022-12-20T18:45:34.425Z,5.10
2022-12-20T18:48:07.753Z,5.20
2022-12-20T18:50:36.980Z,5.20
2022-12-20T18:53:03.677Z,5.20
2022-12-20T18:55:36.777Z,5.10
2022-12-20T18:58:03.743Z,5.20
2022-12-20T19:00:37.698Z,5.20
2022-12-20T19:03:10.940Z,5.10
2022-12-20T19:05:37.971Z,5.10
2022-12-20T19:08:11.707Z,5.10
2022-12-20T19:10:51.725Z,5.20
2022-12-20T19:13:32.767Z,5.10
2022-12-20T19:16:23.774Z,5.10
2022-12-20T19:19:04.830Z,5.10
2022-12-20T19:21:53.645Z,5.00
2022-12-20T19:24:33.750Z,5.10
2022-12-20T19:27:09.302Z,5.10
2022-12-20T19:29:42.755Z,5.10
2022-12-20T19:32:09.374Z,5.10
2022-12-20T19:34:35.985Z,5.10
2022-12-20T19:37:09.783Z,5.00
2022-12-20T19:39:36.518Z,5.10
2022-12-20T19:42:24.057Z,5.10
2022-12-20T19:44:57.751Z,5.10
2022-12-20T19:47:32.717Z,5.10
2022-12-20T19:50:00.908Z,5.10
2022-12-20T19:52:35.711Z,5.00
2022-12-20T19:55:02.321Z,5.00
2022-12-20T19:57:35.786Z,5.10
2022-12-20T20:00:02.523Z,5.10
2022-12-20T20:02:29.477Z,5.10
2022-12-20T20:05:02.790Z,5.10
2022-12-20T20:07:29.451Z,5.10
2022-12-20T20:10:02.768Z,5.00
2022-12-20T20:12:29.469Z,5.00
2022-12-20T20:14:56.166Z,5.00
2022-12-20T20:17:29.911Z,5.00
2022-12-20T20:19:56.578Z,5.00
2022-12-20T20:22:36.722Z,5.00
2022-12-20T20:25:03.460Z,5.00
2022-12-20T20:27:43.748Z,5.00
2022-12-20T20:30:20.760Z,5.00
2022-12-20T20:32:47.371Z,5.00
2022-12-20T20:35:14.123Z,5.00
2022-12-20T20:37:47.694Z,5.00
2022-12-20T20:40:15.500Z,4.90
2022-12-20T20:42:48.759Z,5.00
2022-12-20T20:45:22.705Z,5.00
2022-12-20T20:47:56.717Z,4.90
2022-12-20T20:50:31.707Z,4.90
2022-12-20T20:52:58.314Z,4.90
2022-12-20T20:55:25.048Z,4.90
2022-12-20T20:57:58.915Z,4.90
2022-12-20T21:00:25.746Z,4.80
2022-12-20T21:02:52.518Z,4.90
2022-12-20T21:08:12.346Z,4.90
2022-12-20T21:10:45.871Z,4.80
2022-12-20T21:13:18.746Z,4.80
2022-12-20T21:15:46.432Z,4.90
2022-12-20T21:18:13.849Z,4.90
2022-12-20T21:20:46.675Z,4.90
2022-12-20T21:23:26.752Z,4.80
2022-12-20T21:25:59.850Z,4.90
2022-12-20T21:28:39.685Z,4.80
2022-12-20T21:31:17.839Z,4.80
2022-12-20T21:33:51.761Z,4.70
2022-12-20T21:36:25.799Z,4.80
2022-12-20T21:39:02.683Z,4.70
2022-12-20T21:41:36.738Z,4.70
2022-12-20T21:44:03.484Z,4.70
2022-12-20T21:46:38.741Z,4.80
2022-12-20T21:49:05.371Z,4.80
2022-12-20T21:51:32.152Z,4.80
2022-12-20T21:54:07.670Z,4.80
2022-12-20T21:56:35.658Z,4.70
2022-12-20T21:59:10.680Z,4.80
2022-12-20T22:01:37.492Z,4.80
2022-12-20T22:04:12.814Z,4.70
2022-12-20T22:06:47.752Z,4.70
2022-12-20T22:09:15.230Z,4.70
2022-12-20T22:11:42.135Z,4.70
2022-12-20T22:14:18.748Z,4.70
2022-12-20T22:16:45.475Z,4.80
2022-12-20T22:19:22.725Z,4.80
2022-12-20T22:22:09.667Z,4.70
2022-12-20T22:24:43.678Z,4.70
2022-12-20T22:27:11.636Z,4.70
2022-12-20T22:29:44.759Z,4.70
2022-12-20T22:32:17.709Z,4.60
2022-12-20T22:34:50.699Z,4.60
2022-12-20T22:37:17.382Z,4.60
2022-12-20T22:39:50.689Z,4.60
2022-12-20T22:42:17.327Z,4.60
2022-12-20T22:44:50.717Z,4.60
2022-12-20T22:47:23.683Z,4.60
2022-12-20T22:49:56.709Z,4.70
2022-12-20T22:52:29.846Z,4.70
2022-12-20T22:54:56.589Z,4.60
2022-12-20T22:57:23.198Z,4.60
2022-12-20T22:59:56.734Z,4.50
2022-12-20T23:02:23.510Z,4.50
2022-12-20T23:04:50.800Z,4.50
2022-12-20T23:07:23.712Z,4.50
2022-12-20T23:09:50.320Z,4.50
2022-12-20T23:12:42.720Z,4.50
2022-12-20T23:15:31.099Z,4.50
2022-12-20T23:18:04.747Z,4.40
2022-12-20T23:21:09.742Z,4.50
2022-12-20T23:23:43.679Z,4.50
2022-12-20T23:26:21.896Z,4.50
2022-12-20T23:28:55.267Z,4.50
2022-12-20T23:31:21.953Z,4.50
2022-12-20T23:33:48.589Z,4.50
2022-12-20T23:36:21.690Z,4.40
2022-12-20T23:38:54.753Z,4.50
2022-12-20T23:41:21.407Z,4.50
2022-12-20T23:43:54.742Z,4.50
2022-12-20T23:46:24.501Z,4.50
2022-12-20T23:48:52.279Z,4.60
2022-12-20T23:51:31.803Z,4.50
2022-12-20T23:53:58.541Z,4.50
2022-12-20T23:56:25.700Z,4.50
2022-12-20T23:59:00.767Z,4.50
